sensor_id;sensor_type;location;lat;lon;timestamp;P1;durP1;ratioP1;P2;durP2;ratioP2
44181;SDS011;30436;48.888;9.202;2022-09-13T00:01:43;4.77;;;2.40;;
44181;SDS011;30436;48.888;9.202;2022-09-13T00:04:09;4.13;;;2.50;;
44181;SDS011;30436;48.888;9.202;2022-09-13T00:06:35;2.80;;;2.20;;
44181;SDS011;30436;48.888;9.202;2022-09-13T00:09:01;3.47;;;2.23;;
44181;SDS011;30436;48.888;9.202;2022-09-13T00:11:27;2.87;;;2.47;;
44181;SDS011;30436;48.888;9.202;2022-09-13T00:13:55;2.30;;;2.07;;
44181;SDS011;30436;48.888;9.202;2022-09-13T00:16:21;3.30;;;2.47;;
44181;SDS011;30436;48.888;9.202;2022-09-13T00:18:50;2.57;;;2.10;;
44181;SDS011;30436;48.888;9.202;2022-09-13T00:21:17;3.73;;;2.27;;
44181;SDS011;30436;48.888;9.202;2022-09-13T00:23:44;2.60;;;2.37;;
44181;SDS011;30436;48.888;9.202;2022-09-13T00:26:13;2.33;;;2.13;;
44181;SDS011;30436;48.888;9.202;2022-09-13T00:28:44;3.23;;;2.10;;
44181;SDS011;30436;48.888;9.202;2022-09-13T00:31:12;3.50;;;2.10;;
44181;SDS011;30436;48.888;9.202;2022-09-13T00:33:38;3.03;;;2.40;;
44181;SDS011;30436;48.888;9.202;2022-09-13T00:36:05;3.03;;;2.30;;
44181;SDS011;30436;48.888;9.202;2022-09-13T00:38:33;2.47;;;2.27;;
44181;SDS011;30436;48.888;9.202;2022-09-13T00:41:00;2.47;;;2.17;;
44181;SDS011;30436;48.888;9.202;2022-09-13T00:46:20;9.17;;;2.40;;
44181;SDS011;30436;48.888;9.202;2022-09-13T00:48:48;2.77;;;2.00;;
44181;SDS011;30436;48.888;9.202;2022-09-13T00:51:17;3.70;;;2.30;;
44181;SDS011;30436;48.888;9.202;2022-09-13T00:53:43;3.10;;;2.47;;
44181;SDS011;30436;48.888;9.202;2022-09-13T00:56:18;2.40;;;2.20;;
44181;SDS011;30436;48.888;9.202;2022-09-13T00:58:57;4.47;;;2.40;;
44181;SDS011;30436;48.888;9.202;2022-09-13T01:01:28;3.00;;;2.33;;
44181;SDS011;30436;48.888;9.202;2022-09-13T01:04:05;5.03;;;2.60;;
44181;SDS011;30436;48.888;9.202;2022-09-13T01:06:32;4.40;;;2.73;;
44181;SDS011;30436;48.888;9.202;2022-09-13T01:09:00;3.40;;;2.67;;
44181;SDS011;30436;48.888;9.202;2022-09-13T01:11:31;3.37;;;2.83;;
44181;SDS011;30436;48.888;9.202;2022-09-13T01:14:06;3.63;;;2.60;;
44181;SDS011;30436;48.888;9.202;2022-09-13T01:16:32;3.30;;;2.70;;
44181;SDS011;30436;48.888;9.202;2022-09-13T01:18:58;4.17;;;2.53;;
44181;SDS011;30436;48.888;9.202;2022-09-13T01:35:22;4.67;;;2.73;;
44181;SDS011;30436;48.888;9.202;2022-09-13T01:41:11;5.80;;;3.17;;
44181;SDS011;30436;48.888;9.202;2022-09-13T01:47:10;3.80;;;3.23;;
44181;SDS011;30436;48.888;9.202;2022-09-13T01:49:44;4.37;;;3.20;;
44181;SDS011;30436;48.888;9.202;2022-09-13T01:52:18;5.07;;;3.10;;
44181;SDS011;30436;48.888;9.202;2022-09-13T02:00:21;5.87;;;3.50;;
44181;SDS011;30436;48.888;9.202;2022-09-13T02:02:54;5.60;;;4.13;;
44181;SDS011;30436;48.888;9.202;2022-09-13T02:05:30;3.93;;;3.30;;
44181;SDS011;30436;48.888;9.202;2022-09-13T02:08:07;4.70;;;3.33;;
44181;SDS011;30436;48.888;9.202;2022-09-13T02:10:38;4.90;;;3.20;;
44181;SDS011;30436;48.888;9.202;2022-09-13T02:13:10;5.60;;;3.50;;
44181;SDS011;30436;48.888;9.202;2022-09-13T02:15:42;5.73;;;3.50;;
44181;SDS011;30436;48.888;9.202;2022-09-13T02:18:12;6.33;;;3.70;;
44181;SDS011;30436;48.888;9.202;2022-09-13T02:20:43;6.63;;;3.83;;
44181;SDS011;30436;48.888;9.202;2022-09-13T02:25:59;7.63;;;4.43;;
44181;SDS011;30436;48.888;9.202;2022-09-13T02:28:31;5.33;;;4.20;;
44181;SDS011;30436;48.888;9.202;2022-09-13T02:31:02;4.87;;;3.87;;
44181;SDS011;30436;48.888;9.202;2022-09-13T02:33:38;7.67;;;4.07;;
44181;SDS011;30436;48.888;9.202;2022-09-13T02:36:11;4.90;;;4.13;;
44181;SDS011;30436;48.888;9.202;2022-09-13T02:38:45;6.73;;;3.90;;
44181;SDS011;30436;48.888;9.202;2022-09-13T02:41:22;4.70;;;4.00;;
44181;SDS011;30436;48.888;9.202;2022-09-13T02:49:42;7.17;;;4.33;;
44181;SDS011;30436;48.888;9.202;2022-09-13T02:52:47;6.27;;;3.80;;
44181;SDS011;30436;48.888;9.202;2022-09-13T02:55:25;7.40;;;4.57;;
44181;SDS011;30436;48.888;9.202;2022-09-13T02:57:57;5.20;;;4.10;;
44181;SDS011;30436;48.888;9.202;2022-09-13T03:00:26;4.70;;;4.20;;
44181;SDS011;30436;48.888;9.202;2022-09-13T03:02:53;7.50;;;4.40;;
44181;SDS011;30436;48.888;9.202;2022-09-13T03:05:21;4.83;;;4.00;;
44181;SDS011;30436;48.888;9.202;2022-09-13T03:07:47;8.13;;;4.27;;
44181;SDS011;30436;48.888;9.202;2022-09-13T03:10:14;5.20;;;4.40;;
44181;SDS011;30436;48.888;9.202;2022-09-13T03:15:45;7.17;;;4.23;;
44181;SDS011;30436;48.888;9.202;2022-09-13T03:18:50;4.93;;;3.70;;
44181;SDS011;30436;48.888;9.202;2022-09-13T03:21:44;5.40;;;4.00;;
44181;SDS011;30436;48.888;9.202;2022-09-13T03:27:31;6.53;;;3.83;;
44181;SDS011;30436;48.888;9.202;2022-09-13T03:30:05;9.83;;;4.00;;
44181;SDS011;30436;48.888;9.202;2022-09-13T03:35:03;7.23;;;4.33;;
44181;SDS011;30436;48.888;9.202;2022-09-13T03:40:35;9.73;;;4.20;;
44181;SDS011;30436;48.888;9.202;2022-09-13T03:43:17;7.43;;;4.37;;
44181;SDS011;30436;48.888;9.202;2022-09-13T03:45:59;9.17;;;4.53;;
44181;SDS011;30436;48.888;9.202;2022-09-13T03:48:29;8.00;;;4.07;;
44181;SDS011;30436;48.888;9.202;2022-09-13T03:50:58;4.47;;;3.70;;
44181;SDS011;30436;48.888;9.202;2022-09-13T03:53:24;6.03;;;4.30;;
44181;SDS011;30436;48.888;9.202;2022-09-13T03:55:54;7.33;;;4.60;;
44181;SDS011;30436;48.888;9.202;2022-09-13T03:58:20;8.93;;;4.10;;
44181;SDS011;30436;48.888;9.202;2022-09-13T04:00:46;6.50;;;3.90;;
44181;SDS011;30436;48.888;9.202;2022-09-13T04:03:13;6.27;;;4.33;;
44181;SDS011;30436;48.888;9.202;2022-09-13T04:05:39;6.07;;;3.93;;
44181;SDS011;30436;48.888;9.202;2022-09-13T04:08:06;7.23;;;3.90;;
44181;SDS011;30436;48.888;9.202;2022-09-13T04:10:33;8.27;;;4.00;;
44181;SDS011;30436;48.888;9.202;2022-09-13T04:12:59;6.03;;;3.80;;
44181;SDS011;30436;48.888;9.202;2022-09-13T04:15:25;5.90;;;4.00;;
44181;SDS011;30436;48.888;9.202;2022-09-13T04:17:55;5.63;;;3.87;;
44181;SDS011;30436;48.888;9.202;2022-09-13T04:20:20;7.53;;;4.60;;
44181;SDS011;30436;48.888;9.202;2022-09-13T04:22:53;5.60;;;3.93;;
44181;SDS011;30436;48.888;9.202;2022-09-13T04:25:19;6.97;;;4.50;;
44181;SDS011;30436;48.888;9.202;2022-09-13T04:27:46;5.23;;;4.10;;
44181;SDS011;30436;48.888;9.202;2022-09-13T04:30:12;5.47;;;4.13;;
44181;SDS011;30436;48.888;9.202;2022-09-13T04:32:38;5.93;;;4.10;;
44181;SDS011;30436;48.888;9.202;2022-09-13T04:35:06;7.57;;;4.07;;
44181;SDS011;30436;48.888;9.202;2022-09-13T04:37:33;5.37;;;3.83;;
44181;SDS011;30436;48.888;9.202;2022-09-13T04:39:59;8.23;;;4.07;;
44181;SDS011;30436;48.888;9.202;2022-09-13T04:42:24;5.37;;;3.70;;
44181;SDS011;30436;48.888;9.202;2022-09-13T04:44:50;7.67;;;4.20;;
44181;SDS011;30436;48.888;9.202;2022-09-13T04:47:16;8.40;;;3.87;;
44181;SDS011;30436;48.888;9.202;2022-09-13T04:49:42;5.50;;;3.67;;
44181;SDS011;30436;48.888;9.202;2022-09-13T04:52:07;4.13;;;3.20;;
44181;SDS011;30436;48.888;9.202;2022-09-13T04:54:33;7.47;;;3.70;;
44181;SDS011;30436;48.888;9.202;2022-09-13T04:56:59;5.33;;;3.10;;
44181;SDS011;30436;48.888;9.202;2022-09-13T04:59:24;4.40;;;3.30;;
44181;SDS011;30436;48.888;9.202;2022-09-13T05:01:50;6.60;;;3.37;;
44181;SDS011;30436;48.888;9.202;2022-09-13T05:04:16;5.80;;;3.70;;
44181;SDS011;30436;48.888;9.202;2022-09-13T05:06:41;8.83;;;4.10;;
44181;SDS011;30436;48.888;9.202;2022-09-13T05:09:09;4.87;;;3.50;;
44181;SDS011;30436;48.888;9.202;2022-09-13T05:11:37;4.97;;;3.10;;
44181;SDS011;30436;48.888;9.202;2022-09-13T05:14:03;8.00;;;3.50;;
44181;SDS011;30436;48.888;9.202;2022-09-13T05:16:30;6.67;;;4.07;;
44181;SDS011;30436;48.888;9.202;2022-09-13T05:18:56;7.53;;;3.70;;
44181;SDS011;30436;48.888;9.202;2022-09-13T05:21:23;4.33;;;3.30;;
44181;SDS011;30436;48.888;9.202;2022-09-13T05:23:50;4.77;;;3.30;;
44181;SDS011;30436;48.888;9.202;2022-09-13T05:26:16;3.40;;;3.00;;
44181;SDS011;30436;48.888;9.202;2022-09-13T05:28:42;4.77;;;3.30;;
44181;SDS011;30436;48.888;9.202;2022-09-13T05:31:12;7.87;;;3.63;;
44181;SDS011;30436;48.888;9.202;2022-09-13T05:33:57;3.43;;;2.80;;
44181;SDS011;30436;48.888;9.202;2022-09-13T05:36:29;6.30;;;3.20;;
44181;SDS011;30436;48.888;9.202;2022-09-13T05:38:55;5.07;;;3.57;;
44181;SDS011;30436;48.888;9.202;2022-09-13T05:41:21;5.37;;;3.47;;
44181;SDS011;30436;48.888;9.202;2022-09-13T05:43:47;5.87;;;3.50;;
44181;SDS011;30436;48.888;9.202;2022-09-13T05:46:13;4.77;;;3.20;;
44181;SDS011;30436;48.888;9.202;2022-09-13T05:48:41;7.63;;;3.50;;
44181;SDS011;30436;48.888;9.202;2022-09-13T05:51:17;6.07;;;3.70;;
44181;SDS011;30436;48.888;9.202;2022-09-13T05:53:49;6.77;;;3.50;;
44181;SDS011;30436;48.888;9.202;2022-09-13T05:56:16;4.30;;;3.50;;
44181;SDS011;30436;48.888;9.202;2022-09-13T05:58:48;6.40;;;3.63;;
44181;SDS011;30436;48.888;9.202;2022-09-13T06:01:16;7.30;;;3.60;;
44181;SDS011;30436;48.888;9.202;2022-09-13T06:03:46;6.13;;;3.40;;
44181;SDS011;30436;48.888;9.202;2022-09-13T06:06:13;4.53;;;3.60;;
44181;SDS011;30436;48.888;9.202;2022-09-13T06:08:39;4.70;;;3.80;;
44181;SDS011;30436;48.888;9.202;2022-09-13T06:11:06;5.93;;;3.60;;
44181;SDS011;30436;48.888;9.202;2022-09-13T06:13:34;7.97;;;3.77;;
44181;SDS011;30436;48.888;9.202;2022-09-13T06:16:01;5.27;;;4.10;;
44181;SDS011;30436;48.888;9.202;2022-09-13T06:18:29;5.83;;;3.33;;
44181;SDS011;30436;48.888;9.202;2022-09-13T06:21:02;8.00;;;3.83;;
44181;SDS011;30436;48.888;9.202;2022-09-13T06:23:32;5.23;;;3.53;;
44181;SDS011;30436;48.888;9.202;2022-09-13T06:26:00;4.93;;;3.53;;
44181;SDS011;30436;48.888;9.202;2022-09-13T06:28:32;6.07;;;3.63;;
44181;SDS011;30436;48.888;9.202;2022-09-13T06:31:05;6.40;;;3.97;;
44181;SDS011;30436;48.888;9.202;2022-09-13T06:33:32;7.67;;;4.23;;
44181;SDS011;30436;48.888;9.202;2022-09-13T06:36:02;7.37;;;3.80;;
44181;SDS011;30436;48.888;9.202;2022-09-13T06:38:29;5.60;;;3.80;;
44181;SDS011;30436;48.888;9.202;2022-09-13T06:40:58;7.07;;;3.70;;
44181;SDS011;30436;48.888;9.202;2022-09-13T06:43:25;13.53;;;4.47;;
44181;SDS011;30436;48.888;9.202;2022-09-13T06:45:51;5.47;;;3.80;;
44181;SDS011;30436;48.888;9.202;2022-09-13T06:48:18;5.17;;;3.67;;
44181;SDS011;30436;48.888;9.202;2022-09-13T06:50:43;8.53;;;4.53;;
44181;SDS011;30436;48.888;9.202;2022-09-13T06:53:09;11.80;;;4.17;;
44181;SDS011;30436;48.888;9.202;2022-09-13T06:55:36;7.00;;;4.20;;
44181;SDS011;30436;48.888;9.202;2022-09-13T06:58:02;8.37;;;4.10;;
44181;SDS011;30436;48.888;9.202;2022-09-13T07:00:28;10.53;;;3.90;;
44181;SDS011;30436;48.888;9.202;2022-09-13T07:02:53;7.53;;;4.37;;
44181;SDS011;30436;48.888;9.202;2022-09-13T07:05:19;8.87;;;4.33;;
44181;SDS011;30436;48.888;9.202;2022-09-13T07:07:45;7.10;;;4.10;;
44181;SDS011;30436;48.888;9.202;2022-09-13T07:10:11;6.40;;;3.73;;
44181;SDS011;30436;48.888;9.202;2022-09-13T07:12:39;8.77;;;4.10;;
44181;SDS011;30436;48.888;9.202;2022-09-13T07:15:05;8.17;;;3.80;;
44181;SDS011;30436;48.888;9.202;2022-09-13T07:17:31;7.23;;;3.77;;
44181;SDS011;30436;48.888;9.202;2022-09-13T07:19:57;5.23;;;3.67;;
44181;SDS011;30436;48.888;9.202;2022-09-13T07:22:22;6.80;;;3.80;;
44181;SDS011;30436;48.888;9.202;2022-09-13T07:24:51;6.80;;;3.77;;
44181;SDS011;30436;48.888;9.202;2022-09-13T07:27:17;7.03;;;4.37;;
44181;SDS011;30436;48.888;9.202;2022-09-13T07:29:43;6.67;;;4.03;;
44181;SDS011;30436;48.888;9.202;2022-09-13T07:32:08;5.87;;;3.47;;
44181;SDS011;30436;48.888;9.202;2022-09-13T07:34:34;6.10;;;3.67;;
44181;SDS011;30436;48.888;9.202;2022-09-13T07:37:00;7.50;;;3.43;;
44181;SDS011;30436;48.888;9.202;2022-09-13T07:39:26;5.67;;;3.33;;
44181;SDS011;30436;48.888;9.202;2022-09-13T07:41:52;5.33;;;3.37;;
44181;SDS011;30436;48.888;9.202;2022-09-13T07:44:20;4.43;;;3.10;;
44181;SDS011;30436;48.888;9.202;2022-09-13T07:46:46;5.40;;;2.87;;
44181;SDS011;30436;48.888;9.202;2022-09-13T07:49:13;8.63;;;3.23;;
44181;SDS011;30436;48.888;9.202;2022-09-13T07:51:42;4.57;;;3.57;;
44181;SDS011;30436;48.888;9.202;2022-09-13T07:54:12;6.10;;;2.90;;
44181;SDS011;30436;48.888;9.202;2022-09-13T07:56:40;6.00;;;3.00;;
44181;SDS011;30436;48.888;9.202;2022-09-13T07:59:07;5.43;;;3.23;;
44181;SDS011;30436;48.888;9.202;2022-09-13T08:01:39;4.57;;;2.80;;
44181;SDS011;30436;48.888;9.202;2022-09-13T08:04:11;6.87;;;2.77;;
44181;SDS011;30436;48.888;9.202;2022-09-13T08:06:42;6.53;;;2.83;;
44181;SDS011;30436;48.888;9.202;2022-09-13T08:09:08;6.23;;;2.90;;
44181;SDS011;30436;48.888;9.202;2022-09-13T08:11:39;6.07;;;2.50;;
44181;SDS011;30436;48.888;9.202;2022-09-13T08:14:05;3.87;;;3.00;;
44181;SDS011;30436;48.888;9.202;2022-09-13T08:16:32;4.40;;;2.63;;
44181;SDS011;30436;48.888;9.202;2022-09-13T08:18:59;3.63;;;2.70;;
44181;SDS011;30436;48.888;9.202;2022-09-13T08:21:27;6.27;;;2.60;;
44181;SDS011;30436;48.888;9.202;2022-09-13T08:23:57;5.57;;;2.47;;
44181;SDS011;30436;48.888;9.202;2022-09-13T08:26:25;4.77;;;2.60;;
44181;SDS011;30436;48.888;9.202;2022-09-13T08:28:56;12.23;;;2.77;;
44181;SDS011;30436;48.888;9.202;2022-09-13T08:31:23;6.23;;;2.87;;
44181;SDS011;30436;48.888;9.202;2022-09-13T08:33:49;2.97;;;2.37;;
44181;SDS011;30436;48.888;9.202;2022-09-13T08:36:15;4.27;;;2.53;;
44181;SDS011;30436;48.888;9.202;2022-09-13T08:38:49;4.47;;;2.57;;
44181;SDS011;30436;48.888;9.202;2022-09-13T08:41:20;4.97;;;2.13;;
44181;SDS011;30436;48.888;9.202;2022-09-13T08:43:58;2.93;;;2.20;;
44181;SDS011;30436;48.888;9.202;2022-09-13T08:46:39;3.73;;;2.30;;
44181;SDS011;30436;48.888;9.202;2022-09-13T08:49:11;3.07;;;2.00;;
44181;SDS011;30436;48.888;9.202;2022-09-13T08:51:53;3.57;;;2.30;;
44181;SDS011;30436;48.888;9.202;2022-09-13T08:54:20;6.07;;;2.50;;
44181;SDS011;30436;48.888;9.202;2022-09-13T09:05:21;4.57;;;2.40;;
44181;SDS011;30436;48.888;9.202;2022-09-13T09:07:56;3.30;;;2.80;;
44181;SDS011;30436;48.888;9.202;2022-09-13T09:10:30;4.83;;;2.27;;
44181;SDS011;30436;48.888;9.202;2022-09-13T09:13:05;5.47;;;2.77;;
44181;SDS011;30436;48.888;9.202;2022-09-13T09:15:44;2.37;;;2.17;;
44181;SDS011;30436;48.888;9.202;2022-09-13T09:18:13;5.23;;;2.47;;
44181;SDS011;30436;48.888;9.202;2022-09-13T09:20:48;5.10;;;2.17;;
44181;SDS011;30436;48.888;9.202;2022-09-13T09:23:28;3.07;;;2.10;;
44181;SDS011;30436;48.888;9.202;2022-09-13T09:26:17;5.33;;;2.20;;
44181;SDS011;30436;48.888;9.202;2022-09-13T09:28:50;2.83;;;2.07;;
44181;SDS011;30436;48.888;9.202;2022-09-13T09:31:41;4.50;;;2.00;;
44181;SDS011;30436;48.888;9.202;2022-09-13T09:37:24;4.00;;;1.87;;
44181;SDS011;30436;48.888;9.202;2022-09-13T09:39:54;6.13;;;5.27;;
44181;SDS011;30436;48.888;9.202;2022-09-13T09:42:29;8.50;;;2.40;;
44181;SDS011;30436;48.888;9.202;2022-09-13T09:45:03;2.27;;;1.80;;
44181;SDS011;30436;48.888;9.202;2022-09-13T09:47:42;5.30;;;2.60;;
44181;SDS011;30436;48.888;9.202;2022-09-13T09:50:10;2.60;;;1.93;;
44181;SDS011;30436;48.888;9.202;2022-09-13T09:52:58;3.03;;;2.00;;
44181;SDS011;30436;48.888;9.202;2022-09-13T09:55:26;4.33;;;2.53;;
44181;SDS011;30436;48.888;9.202;2022-09-13T10:00:22;3.15;;;1.92;;
44181;SDS011;30436;48.888;9.202;2022-09-13T10:02:51;1.90;;;1.70;;
44181;SDS011;30436;48.888;9.202;2022-09-13T10:05:21;2.33;;;1.40;;
44181;SDS011;30436;48.888;9.202;2022-09-13T10:07:52;3.13;;;1.57;;
44181;SDS011;30436;48.888;9.202;2022-09-13T10:10:31;1.60;;;1.40;;
44181;SDS011;30436;48.888;9.202;2022-09-13T10:13:00;1.90;;;1.77;;
44181;SDS011;30436;48.888;9.202;2022-09-13T10:15:29;1.77;;;1.42;;
44181;SDS011;30436;48.888;9.202;2022-09-13T10:20:30;3.30;;;1.33;;
44181;SDS011;30436;48.888;9.202;2022-09-13T10:25:41;4.00;;;1.60;;
44181;SDS011;30436;48.888;9.202;2022-09-13T10:28:10;2.95;;;1.45;;
44181;SDS011;30436;48.888;9.202;2022-09-13T10:30:45;4.07;;;1.55;;
44181;SDS011;30436;48.888;9.202;2022-09-13T10:33:24;2.75;;;1.30;;
44181;SDS011;30436;48.888;9.202;2022-09-13T10:36:17;1.42;;;1.33;;
44181;SDS011;30436;48.888;9.202;2022-09-13T10:38:56;1.88;;;1.15;;
44181;SDS011;30436;48.888;9.202;2022-09-13T10:41:29;5.25;;;1.33;;
44181;SDS011;30436;48.888;9.202;2022-09-13T10:44:01;2.50;;;1.40;;
44181;SDS011;30436;48.888;9.202;2022-09-13T10:46:29;3.72;;;1.50;;
44181;SDS011;30436;48.888;9.202;2022-09-13T10:48:57;2.00;;;1.30;;
44181;SDS011;30436;48.888;9.202;2022-09-13T10:56:41;5.00;;;1.10;;
44181;SDS011;30436;48.888;9.202;2022-09-13T10:59:14;1.30;;;1.20;;
44181;SDS011;30436;48.888;9.202;2022-09-13T11:02:34;1.52;;;1.10;;
44181;SDS011;30436;48.888;9.202;2022-09-13T11:04:44;1.05;;;1.00;;
44181;SDS011;30436;48.888;9.202;2022-09-13T11:07:43;1.15;;;0.98;;
44181;SDS011;30436;48.888;9.202;2022-09-13T11:10:26;1.45;;;1.08;;
44181;SDS011;30436;48.888;9.202;2022-09-13T11:13:02;2.33;;;1.05;;
44181;SDS011;30436;48.888;9.202;2022-09-13T11:15:43;2.00;;;0.93;;
44181;SDS011;30436;48.888;9.202;2022-09-13T11:21:28;1.40;;;1.30;;
44181;SDS011;30436;48.888;9.202;2022-09-13T11:42:31;1.80;;;0.80;;
44181;SDS011;30436;48.888;9.202;2022-09-13T11:53:27;2.33;;;0.95;;
44181;SDS011;30436;48.888;9.202;2022-09-13T11:56:23;1.08;;;0.90;;
44181;SDS011;30436;48.888;9.202;2022-09-13T12:01:48;3.00;;;1.20;;
44181;SDS011;30436;48.888;9.202;2022-09-13T12:04:29;0.90;;;0.90;;
44181;SDS011;30436;48.888;9.202;2022-09-13T12:07:09;1.00;;;1.00;;
44181;SDS011;30436;48.888;9.202;2022-09-13T12:09:50;0.90;;;0.90;;
44181;SDS011;30436;48.888;9.202;2022-09-13T12:12:18;1.92;;;1.17;;
44181;SDS011;30436;48.888;9.202;2022-09-13T12:14:51;3.05;;;1.17;;
44181;SDS011;30436;48.888;9.202;2022-09-13T12:17:30;2.42;;;1.10;;
44181;SDS011;30436;48.888;9.202;2022-09-13T12:20:34;1.45;;;1.10;;
44181;SDS011;30436;48.888;9.202;2022-09-13T12:23:11;1.40;;;1.20;;
44181;SDS011;30436;48.888;9.202;2022-09-13T12:25:53;1.73;;;1.00;;
44181;SDS011;30436;48.888;9.202;2022-09-13T12:28:41;1.77;;;1.10;;
44181;SDS011;30436;48.888;9.202;2022-09-13T12:31:19;1.35;;;1.00;;
44181;SDS011;30436;48.888;9.202;2022-09-13T12:33:48;0.98;;;0.88;;
44181;SDS011;30436;48.888;9.202;2022-09-13T12:46:54;2.53;;;0.98;;
44181;SDS011;30436;48.888;9.202;2022-09-13T12:49:44;0.93;;;0.77;;
44181;SDS011;30436;48.888;9.202;2022-09-13T12:52:39;0.90;;;0.90;;
44181;SDS011;30436;48.888;9.202;2022-09-13T13:03:35;1.40;;;0.82;;
44181;SDS011;30436;48.888;9.202;2022-09-13T13:09:06;1.45;;;0.90;;
44181;SDS011;30436;48.888;9.202;2022-09-13T13:11:52;0.90;;;0.90;;
44181;SDS011;30436;48.888;9.202;2022-09-13T13:17:32;2.90;;;0.80;;
44181;SDS011;30436;48.888;9.202;2022-09-13T13:23:16;0.93;;;0.90;;
44181;SDS011;30436;48.888;9.202;2022-09-13T13:39:11;2.75;;;0.80;;
44181;SDS011;30436;48.888;9.202;2022-09-13T13:41:58;0.90;;;0.77;;
44181;SDS011;30436;48.888;9.202;2022-09-13T13:55:04;0.73;;;0.73;;
44181;SDS011;30436;48.888;9.202;2022-09-13T14:01:27;1.98;;;0.88;;
44181;SDS011;30436;48.888;9.202;2022-09-13T14:04:41;1.10;;;0.80;;
44181;SDS011;30436;48.888;9.202;2022-09-13T14:12:43;4.07;;;1.00;;
44181;SDS011;30436;48.888;9.202;2022-09-13T14:17:49;2.33;;;1.00;;
44181;SDS011;30436;48.888;9.202;2022-09-13T14:20:18;1.13;;;0.75;;
44181;SDS011;30436;48.888;9.202;2022-09-13T14:22:45;0.80;;;0.80;;
44181;SDS011;30436;48.888;9.202;2022-09-13T14:25:29;1.15;;;0.80;;
44181;SDS011;30436;48.888;9.202;2022-09-13T14:27:55;3.13;;;0.70;;
44181;SDS011;30436;48.888;9.202;2022-09-13T14:30:29;1.10;;;0.60;;
44181;SDS011;30436;48.888;9.202;2022-09-13T14:32:58;5.88;;;1.08;;
44181;SDS011;30436;48.888;9.202;2022-09-13T14:37:55;0.85;;;0.70;;
44181;SDS011;30436;48.888;9.202;2022-09-13T14:40:33;4.32;;;0.90;;
44181;SDS011;30436;48.888;9.202;2022-09-13T14:42:59;2.47;;;0.80;;
44181;SDS011;30436;48.888;9.202;2022-09-13T14:45:26;0.57;;;0.57;;
44181;SDS011;30436;48.888;9.202;2022-09-13T14:48:06;1.17;;;0.68;;
44181;SDS011;30436;48.888;9.202;2022-09-13T14:50:44;1.25;;;0.60;;
44181;SDS011;30436;48.888;9.202;2022-09-13T14:53:15;0.70;;;0.63;;
44181;SDS011;30436;48.888;9.202;2022-09-13T14:55:48;1.95;;;0.73;;
44181;SDS011;30436;48.888;9.202;2022-09-13T14:58:21;1.60;;;0.80;;
44181;SDS011;30436;48.888;9.202;2022-09-13T15:00:53;0.60;;;0.60;;
44181;SDS011;30436;48.888;9.202;2022-09-13T15:03:23;0.60;;;0.60;;
44181;SDS011;30436;48.888;9.202;2022-09-13T15:05:51;0.60;;;0.60;;
44181;SDS011;30436;48.888;9.202;2022-09-13T15:11:06;0.63;;;0.63;;
44181;SDS011;30436;48.888;9.202;2022-09-13T15:13:37;0.90;;;0.73;;
44181;SDS011;30436;48.888;9.202;2022-09-13T15:16:27;0.88;;;0.63;;
44181;SDS011;30436;48.888;9.202;2022-09-13T15:19:14;2.58;;;0.80;;
44181;SDS011;30436;48.888;9.202;2022-09-13T15:22:04;0.68;;;0.68;;
44181;SDS011;30436;48.888;9.202;2022-09-13T15:24:47;1.00;;;0.80;;
44181;SDS011;30436;48.888;9.202;2022-09-13T15:27:28;0.90;;;0.60;;
44181;SDS011;30436;48.888;9.202;2022-09-13T15:30:19;3.65;;;0.90;;
44181;SDS011;30436;48.888;9.202;2022-09-13T15:32:45;1.92;;;0.90;;
44181;SDS011;30436;48.888;9.202;2022-09-13T15:35:14;1.05;;;0.70;;
44181;SDS011;30436;48.888;9.202;2022-09-13T15:37:41;2.70;;;0.80;;
44181;SDS011;30436;48.888;9.202;2022-09-13T15:40:10;1.23;;;0.90;;
44181;SDS011;30436;48.888;9.202;2022-09-13T15:42:48;3.28;;;0.90;;
44181;SDS011;30436;48.888;9.202;2022-09-13T15:45:16;2.40;;;0.80;;
44181;SDS011;30436;48.888;9.202;2022-09-13T15:47:48;1.63;;;0.90;;
44181;SDS011;30436;48.888;9.202;2022-09-13T15:50:19;2.13;;;1.05;;
44181;SDS011;30436;48.888;9.202;2022-09-13T15:52:55;0.88;;;0.88;;
44181;SDS011;30436;48.888;9.202;2022-09-13T15:55:24;1.02;;;0.93;;
44181;SDS011;30436;48.888;9.202;2022-09-13T15:57:51;2.92;;;1.10;;
44181;SDS011;30436;48.888;9.202;2022-09-13T16:00:21;1.00;;;1.00;;
44181;SDS011;30436;48.888;9.202;2022-09-13T16:02:49;1.38;;;1.08;;
44181;SDS011;30436;48.888;9.202;2022-09-13T16:05:15;2.88;;;1.00;;
44181;SDS011;30436;48.888;9.202;2022-09-13T16:07:41;1.40;;;1.30;;
44181;SDS011;30436;48.888;9.202;2022-09-13T16:10:18;1.10;;;0.90;;
44181;SDS011;30436;48.888;9.202;2022-09-13T16:12:46;2.65;;;1.10;;
44181;SDS011;30436;48.888;9.202;2022-09-13T16:15:12;2.00;;;1.25;;
44181;SDS011;30436;48.888;9.202;2022-09-13T16:17:38;2.60;;;1.08;;
44181;SDS011;30436;48.888;9.202;2022-09-13T16:20:05;4.90;;;1.17;;
44181;SDS011;30436;48.888;9.202;2022-09-13T16:22:33;3.95;;;1.30;;
44181;SDS011;30436;48.888;9.202;2022-09-13T16:24:59;5.10;;;1.20;;
44181;SDS011;30436;48.888;9.202;2022-09-13T16:27:24;1.20;;;1.10;;
44181;SDS011;30436;48.888;9.202;2022-09-13T16:29:52;5.13;;;1.65;;
44181;SDS011;30436;48.888;9.202;2022-09-13T16:32:18;2.00;;;1.20;;
44181;SDS011;30436;48.888;9.202;2022-09-13T16:34:44;1.48;;;1.20;;
44181;SDS011;30436;48.888;9.202;2022-09-13T16:37:15;4.50;;;1.48;;
44181;SDS011;30436;48.888;9.202;2022-09-13T16:39:42;4.20;;;2.38;;
44181;SDS011;30436;48.888;9.202;2022-09-13T16:42:09;5.55;;;3.40;;
44181;SDS011;30436;48.888;9.202;2022-09-13T16:44:36;3.28;;;1.30;;
44181;SDS011;30436;48.888;9.202;2022-09-13T16:47:02;3.92;;;1.30;;
44181;SDS011;30436;48.888;9.202;2022-09-13T16:49:28;3.35;;;2.03;;
44181;SDS011;30436;48.888;9.202;2022-09-13T16:51:53;2.10;;;1.63;;
44181;SDS011;30436;48.888;9.202;2022-09-13T16:54:23;3.60;;;2.30;;
44181;SDS011;30436;48.888;9.202;2022-09-13T16:56:50;3.30;;;1.75;;
44181;SDS011;30436;48.888;9.202;2022-09-13T16:59:16;4.70;;;1.83;;
44181;SDS011;30436;48.888;9.202;2022-09-13T17:01:41;2.10;;;1.30;;
44181;SDS011;30436;48.888;9.202;2022-09-13T17:04:07;1.35;;;1.23;;
44181;SDS011;30436;48.888;9.202;2022-09-13T17:06:35;2.72;;;1.50;;
44181;SDS011;30436;48.888;9.202;2022-09-13T17:09:02;2.60;;;1.27;;
44181;SDS011;30436;48.888;9.202;2022-09-13T17:11:30;3.83;;;1.50;;
44181;SDS011;30436;48.888;9.202;2022-09-13T17:13:59;2.80;;;1.40;;
44181;SDS011;30436;48.888;9.202;2022-09-13T17:16:34;1.73;;;1.30;;
44181;SDS011;30436;48.888;9.202;2022-09-13T17:19:03;2.10;;;1.60;;
44181;SDS011;30436;48.888;9.202;2022-09-13T17:21:32;7.70;;;1.90;;
44181;SDS011;30436;48.888;9.202;2022-09-13T17:23:58;5.45;;;1.55;;
44181;SDS011;30436;48.888;9.202;2022-09-13T17:26:24;5.75;;;1.40;;
44181;SDS011;30436;48.888;9.202;2022-09-13T17:28:50;3.17;;;1.30;;
44181;SDS011;30436;48.888;9.202;2022-09-13T17:31:17;1.45;;;1.20;;
44181;SDS011;30436;48.888;9.202;2022-09-13T17:33:43;2.75;;;1.23;;
44181;SDS011;30436;48.888;9.202;2022-09-13T17:36:10;1.95;;;1.20;;
44181;SDS011;30436;48.888;9.202;2022-09-13T17:38:37;3.17;;;1.30;;
44181;SDS011;30436;48.888;9.202;2022-09-13T17:41:08;3.08;;;1.77;;
44181;SDS011;30436;48.888;9.202;2022-09-13T17:43:39;4.57;;;1.70;;
44181;SDS011;30436;48.888;9.202;2022-09-13T17:46:08;1.70;;;1.60;;
44181;SDS011;30436;48.888;9.202;2022-09-13T17:48:39;2.55;;;1.40;;
44181;SDS011;30436;48.888;9.202;2022-09-13T17:51:09;1.27;;;1.17;;
44181;SDS011;30436;48.888;9.202;2022-09-13T17:53:36;2.85;;;1.40;;
44181;SDS011;30436;48.888;9.202;2022-09-13T17:56:07;1.95;;;1.58;;
44181;SDS011;30436;48.888;9.202;2022-09-13T17:58:34;4.75;;;1.98;;
44181;SDS011;30436;48.888;9.202;2022-09-13T18:01:03;3.45;;;1.80;;
44181;SDS011;30436;48.888;9.202;2022-09-13T18:03:33;2.75;;;1.30;;
44181;SDS011;30436;48.888;9.202;2022-09-13T18:06:01;4.53;;;3.05;;
44181;SDS011;30436;48.888;9.202;2022-09-13T18:08:28;3.47;;;1.55;;